Time;durP1;ratioP1;P1;durP2;ratioP2;P2;SDS_P1;SDS_P2;PMS_P1;PMS_P2;Temp;Humidity;BMP_temperature;BMP_pressure;BME280_temperature;BME280_humidity;BME280_pressure;Samples;Min_cycle;Max_cycle;Signal;HPM_P1;HPM_P2
2022/09/16 00:00:42;;;;;;;13.93;4.20;;;;;;;20.22;100.00;100870.78;5022754;28;20299;-49
2022/09/16 00:03:07;;;;;;;15.00;4.13;;;;;;;20.15;100.00;100873.72;5017408;28;20037;-47
2022/09/16 00:05:33;;;;;;;8.17;3.20;;;;;;;20.16;100.00;100871.81;4998991;28;20285;-46
2022/09/16 00:07:59;;;;;;;10.55;1.85;;;;;;;20.11;100.00;100869.06;4994497;28;20041;-46
2022/09/16 00:10:24;;;;;;;6.60;2.83;;;;;;;19.68;100.00;100868.91;4999783;28;20038;-52
2022/09/16 00:12:50;;;;;;;13.15;3.03;;;;;;;19.71;100.00;100871.13;5011398;28;20039;-51
2022/09/16 00:15:16;;;;;;;7.20;1.60;;;;;;;19.84;100.00;100865.28;5004539;28;20117;-46
2022/09/16 00:17:42;;;;;;;9.25;1.90;;;;;;;19.44;100.00;100871.94;4993905;28;20050;-49
2022/09/16 00:20:08;;;;;;;8.23;1.73;;;;;;;20.10;100.00;100867.41;4994632;28;20099;-46
2022/09/16 00:22:33;;;;;;;8.45;1.40;;;;;;;19.96;100.00;100864.31;5003998;28;20292;-46
2022/09/16 00:24:59;;;;;;;10.43;1.83;;;;;;;19.95;100.00;100862.69;5024892;28;20044;-46
2022/09/16 00:27:24;;;;;;;5.85;1.20;;;;;;;19.92;100.00;100864.00;5008327;28;20086;-47
2022/09/16 00:29:50;;;;;;;7.47;1.38;;;;;;;20.00;100.00;100866.25;5009442;28;20063;-48
2022/09/16 00:32:15;;;;;;;6.17;1.47;;;;;;;20.27;100.00;100867.28;5005586;28;20047;-50
2022/09/16 00:34:41;;;;;;;5.77;1.40;;;;;;;20.16;100.00;100878.06;5003103;28;20037;-51
2022/09/16 00:37:08;;;;;;;4.32;1.27;;;;;;;20.27;100.00;100878.97;5002103;28;20048;-49
2022/09/16 00:39:34;;;;;;;9.27;1.93;;;;;;;20.46;100.00;100886.72;4990683;28;20061;-47
2022/09/16 00:42:02;;;;;;;12.27;2.83;;;;;;;20.43;100.00;100888.03;5000103;28;20261;-48
2022/09/16 00:44:53;;;;;;;12.03;3.43;;;;;;;20.53;100.00;100890.00;4991022;28;20277;-47
2022/09/16 00:47:33;;;;;;;17.90;3.77;;;;;;;20.43;100.00;100881.81;4989174;28;20281;-49
2022/09/16 00:50:07;;;;;;;8.20;2.17;;;;;;;20.34;100.00;100878.75;5004805;28;20300;-51
2022/09/16 00:52:33;;;;;;;10.70;2.30;;;;;;;20.19;100.00;100882.16;5005528;28;20308;-52
2022/09/16 00:55:05;;;;;;;6.50;1.87;;;;;;;20.54;100.00;100878.06;5011984;28;20284;-52
2022/09/16 00:57:31;;;;;;;5.73;2.07;;;;;;;20.63;100.00;100881.91;5006771;28;20274;-51
2022/09/16 00:59:58;;;;;;;8.52;2.00;;;;;;;20.40;100.00;100883.13;5008085;28;20299;-51
2022/09/16 01:02:25;;;;;;;6.13;1.70;;;;;;;20.51;100.00;100883.19;4990712;28;20494;-49
2022/09/16 01:04:56;;;;;;;8.23;2.30;;;;;;;20.38;100.00;100881.75;4993143;28;20273;-51
2022/09/16 01:07:31;;;;;;;8.17;1.80;;;;;;;20.29;100.00;100873.25;5000127;28;20272;-52
2022/09/16 01:09:57;;;;;;;6.00;1.83;;;;;;;20.23;100.00;100877.03;5004624;28;20272;-52
2022/09/16 01:12:25;;;;;;;8.05;1.63;;;;;;;20.43;100.00;100887.25;5000696;28;20356;-48
2022/09/16 01:14:53;;;;;;;7.30;1.47;;;;;;;20.52;100.00;100885.66;5016173;28;20048;-49
2022/09/16 01:17:39;;;;;;;12.93;1.90;;;;;;;20.09;100.00;100880.19;4999004;28;20340;-50
2022/09/16 01:20:46;;;;;;;8.50;1.63;;;;;;;20.09;100.00;100888.31;4991031;28;20312;-50
2022/09/16 01:23:15;;;;;;;11.53;2.47;;;;;;;19.93;100.00;100890.06;4991770;28;20342;-48
2022/09/16 01:25:59;;;;;;;8.30;2.67;;;;;;;20.10;100.00;100889.97;5004710;28;20349;-47
2022/09/16 01:29:04;;;;;;;14.27;2.70;;;;;;;19.69;100.00;100875.97;4988707;28;20287;-47
2022/09/16 01:31:52;;;;;;;10.37;3.00;;;;;;;19.29;100.00;100876.09;5002723;28;20357;-50
2022/09/16 01:34:30;;;;;;;13.97;3.33;;;;;;;19.70;100.00;100872.19;4978098;28;20361;-52
2022/09/16 01:37:04;;;;;;;18.97;3.67;;;;;;;20.07;100.00;100874.19;5006776;28;20264;-50
2022/09/16 01:39:43;;;;;;;16.03;3.13;;;;;;;20.08;100.00;100858.72;5000371;28;20335;-47
2022/09/16 01:42:31;;;;;;;17.73;2.73;;;;;;;20.25;100.00;100866.72;5015535;28;20285;-49
2022/09/16 01:45:18;;;;;;;16.55;3.38;;;;;;;20.17;100.00;100866.13;4992264;28;20287;-49
2022/09/16 01:47:56;;;;;;;11.90;2.77;;;;;;;19.90;100.00;100861.53;5007307;28;20069;-48
2022/09/16 01:50:50;;;;;;;6.93;2.00;;;;;;;19.92;100.00;100861.28;5003853;28;20273;-47
2022/09/16 01:53:26;;;;;;;6.37;2.00;;;;;;;19.72;100.00;100870.88;5005212;28;20300;-48
2022/09/16 01:56:02;;;;;;;10.13;2.33;;;;;;;19.74;100.00;100860.56;4991251;28;20264;-47
2022/09/16 01:58:49;;;;;;;16.47;3.33;;;;;;;19.60;100.00;100868.28;5006419;28;20035;-48
2022/09/16 02:01:25;;;;;;;11.23;3.00;;;;;;;19.84;100.00;100865.28;4994028;28;20269;-48
2022/09/16 02:03:57;;;;;;;13.20;3.90;;;;;;;19.98;100.00;100864.88;5003397;28;20266;-51
2022/09/16 02:06:25;;;;;;;10.90;2.80;;;;;;;19.80;100.00;100869.56;4991452;28;20332;-47
2022/09/16 02:08:55;;;;;;;12.73;3.00;;;;;;;19.58;100.00;100875.84;4992390;28;20417;-49
2022/09/16 02:11:22;;;;;;;16.83;3.30;;;;;;;19.74;100.00;100879.56;5013709;28;20277;-47
2022/09/16 02:13:51;;;;;;;13.02;2.20;;;;;;;19.87;100.00;100872.06;4999693;28;20306;-49
2022/09/16 02:16:23;;;;;;;8.80;2.37;;;;;;;19.98;100.00;100875.72;5006444;28;20039;-47
2022/09/16 02:18:55;;;;;;;18.37;2.97;;;;;;;19.95;100.00;100879.75;5005771;28;20291;-51
2022/09/16 02:21:24;;;;;;;7.57;2.00;;;;;;;20.04;100.00;100877.41;5008396;28;20288;-49
2022/09/16 02:23:54;;;;;;;6.87;2.27;;;;;;;20.17;100.00;100876.97;5002024;28;20288;-48
2022/09/16 02:26:25;;;;;;;11.90;1.93;;;;;;;20.19;100.00;100872.09;4997407;28;20268;-47
2022/09/16 02:28:53;;;;;;;9.57;2.00;;;;;;;20.10;100.00;100868.25;5008983;28;20285;-48
2022/09/16 02:31:25;;;;;;;10.50;2.17;;;;;;;19.96;100.00;100870.56;5017288;28;20284;-49
2022/09/16 02:34:13;;;;;;;10.23;1.90;;;;;;;19.91;100.00;100871.34;5022639;28;20264;-51
2022/09/16 02:36:43;;;;;;;14.63;1.95;;;;;;;19.50;100.00;100870.91;4998266;28;20273;-50
2022/09/16 02:39:13;;;;;;;9.80;2.43;;;;;;;19.31;100.00;100868.53;4994835;28;20074;-48
2022/09/16 02:41:40;;;;;;;15.50;3.40;;;;;;;19.52;100.00;100868.75;5005898;28;20284;-48
2022/09/16 02:44:06;;;;;;;;;;;;;;;19.53;100.00;100861.44;4999252;28;20267;-49
2022/09/16 02:46:34;;;;;;;14.90;4.03;;;;;;;19.37;100.00;100865.84;5012648;28;19913;-50
2022/09/16 02:49:21;;;;;;;10.57;3.50;;;;;;;19.39;100.00;100858.31;5005031;28;20281;-47
2022/09/16 02:52:18;;;;;;;18.80;4.05;;;;;;;19.88;100.00;100865.56;5000013;28;20297;-51
2022/09/16 02:55:04;;;;;;;7.40;3.27;;;;;;;19.62;100.00;100871.59;4988148;28;20037;-48
2022/09/16 02:57:30;;;;;;;9.45;2.13;;;;;;;19.86;100.00;100873.97;5019121;28;20265;-49
2022/09/16 02:59:56;;;;;;;8.18;2.63;;;;;;;19.53;100.00;100877.72;5022382;28;20094;-47
2022/09/16 03:02:22;;;;;;;15.88;3.33;;;;;;;19.59;100.00;100868.56;5004589;28;20052;-49
2022/09/16 03:04:48;;;;;;;9.85;2.53;;;;;;;19.49;100.00;100869.25;5013084;28;20098;-54
2022/09/16 03:07:14;;;;;;;11.97;2.93;;;;;;;19.96;100.00;100873.28;4991516;28;20057;-53
2022/09/16 03:09:47;;;;;;;7.73;1.97;;;;;;;19.48;100.00;100863.00;5007593;28;20033;-47
2022/09/16 03:12:46;;;;;;;10.37;2.97;;;;;;;19.35;100.00;100869.66;4990182;28;20300;-48
2022/09/16 03:15:22;;;;;;;7.67;2.03;;;;;;;18.72;100.00;100874.50;5027939;28;20284;-48
2022/09/16 03:18:04;;;;;;;45.70;3.53;;;;;;;19.02;100.00;100882.28;5007275;28;20274;-47
2022/09/16 03:20:41;;;;;;;12.67;2.43;;;;;;;19.56;100.00;100880.72;5021132;28;20095;-47
2022/09/16 03:23:25;;;;;;;13.90;1.80;;;;;;;19.55;100.00;100873.66;4998579;28;20329;-46
2022/09/16 03:26:09;;;;;;;16.97;2.83;;;;;;;19.25;100.00;100877.66;5005485;28;20263;-47
2022/09/16 03:29:03;;;;;;;9.70;1.90;;;;;;;19.25;100.00;100869.53;4996655;28;20313;-46
2022/09/16 03:31:41;;;;;;;6.23;1.70;;;;;;;19.24;100.00;100870.63;5016021;28;20315;-51
2022/09/16 03:34:28;;;;;;;16.70;2.47;;;;;;;19.33;100.00;100863.66;5014532;28;20262;-48
2022/09/16 03:37:02;;;;;;;7.93;2.07;;;;;;;19.12;100.00;100854.47;4991083;28;20257;-50
2022/09/16 03:39:30;;;;;;;12.33;2.17;;;;;;;18.87;100.00;100857.63;4998261;28;20306;-47
2022/09/16 03:42:01;;;;;;;5.30;2.17;;;;;;;19.23;100.00;100868.97;4996690;28;20281;-48
2022/09/16 03:44:38;;;;;;;8.07;2.20;;;;;;;19.43;100.00;100864.88;4998121;28;20281;-47
2022/09/16 03:47:05;;;;;;;6.90;1.77;;;;;;;19.61;100.00;100861.81;4987131;28;20257;-46
2022/09/16 03:49:31;;;;;;;10.20;2.17;;;;;;;19.61;100.00;100856.38;5011045;28;20272;-46
2022/09/16 03:51:57;;;;;;;11.77;2.15;;;;;;;19.41;100.00;100854.25;5001463;28;20291;-47
2022/09/16 03:54:22;;;;;;;8.30;1.70;;;;;;;19.42;100.00;100864.03;4989713;28;20046;-47
2022/09/16 03:56:49;;;;;;;4.78;1.45;;;;;;;19.24;100.00;100856.22;4991849;28;20034;-47
2022/09/16 03:59:14;;;;;;;6.53;1.42;;;;;;;19.43;100.00;100860.25;4993901;28;20084;-47
2022/09/16 04:01:39;;;;;;;6.43;2.00;;;;;;;19.02;100.00;100860.59;4999882;28;20046;-48
2022/09/16 04:04:05;;;;;;;5.63;1.40;;;;;;;18.88;100.00;100865.53;4988621;28;20034;-47
2022/09/16 04:06:31;;;;;;;6.28;1.92;;;;;;;18.97;100.00;100868.63;5016872;28;20036;-48
2022/09/16 04:08:59;;;;;;;5.97;1.30;;;;;;;19.26;100.00;100876.59;4993071;28;20035;-48
2022/09/16 04:11:28;;;;;;;4.83;1.60;;;;;;;18.96;100.00;100880.53;5010897;28;20316;-48
2022/09/16 04:13:54;;;;;;;5.30;1.73;;;;;;;19.06;100.00;100883.41;4999277;28;20274;-48
2022/09/16 04:16:20;;;;;;;10.15;2.38;;;;;;;19.12;100.00;100886.16;5009263;28;20262;-50
2022/09/16 04:18:46;;;;;;;16.33;4.47;;;;;;;19.27;100.00;100883.66;5002576;28;20066;-53
2022/09/16 04:21:12;;;;;;;10.50;2.55;;;;;;;19.28;100.00;100874.44;5013066;28;20025;-48
2022/09/16 04:23:38;;;;;;;9.68;2.22;;;;;;;19.25;100.00;100866.00;4991323;28;20098;-49
2022/09/16 04:26:03;;;;;;;20.13;2.83;;;;;;;18.86;100.00;100856.00;5001166;28;20039;-51
2022/09/16 04:28:32;;;;;;;39.20;3.13;;;;;;;19.16;100.00;100849.38;4994024;28;20122;-48
2022/09/16 04:31:00;;;;;;;13.23;1.90;;;;;;;19.02;100.00;100841.63;4989903;28;20039;-47
2022/09/16 04:33:34;;;;;;;7.07;1.60;;;;;;;19.25;100.00;100850.56;5003374;28;20285;-51
2022/09/16 04:36:11;;;;;;;6.80;2.63;;;;;;;19.52;100.00;100847.06;4997412;28;20304;-49
2022/09/16 04:38:39;;;;;;;4.77;2.13;;;;;;;19.65;100.00;100847.72;5002593;28;20304;-47
2022/09/16 04:41:07;;;;;;;7.70;1.57;;;;;;;19.55;100.00;100853.88;5013610;28;20280;-48
2022/09/16 04:43:33;;;;;;;15.00;3.43;;;;;;;19.41;100.00;100858.88;5000246;28;20281;-51
2022/09/16 04:45:59;;;;;;;12.48;3.22;;;;;;;19.30;100.00;100850.63;4995899;28;20280;-51
2022/09/16 04:48:25;;;;;;;7.40;2.40;;;;;;;19.39;100.00;100847.47;5003830;28;20066;-50
2022/09/16 04:50:51;;;;;;;6.97;1.75;;;;;;;19.11;100.00;100850.13;4989403;28;20276;-48
2022/09/16 04:53:18;;;;;;;;;;;;;;;19.23;100.00;100850.00;4993721;28;20049;-51
2022/09/16 04:55:45;;;;;;;9.60;1.15;;;;;;;18.98;100.00;100843.19;5019697;28;20005;-53
2022/09/16 04:58:11;;;;;;;12.07;2.05;;;;;;;19.04;100.00;100842.19;5002447;28;20098;-51
2022/09/16 05:00:36;;;;;;;7.95;1.80;;;;;;;18.44;100.00;100843.78;5023761;28;20038;-47
2022/09/16 05:03:02;;;;;;;7.80;1.55;;;;;;;18.67;100.00;100845.44;5000232;28;20030;-49
2022/09/16 05:05:27;;;;;;;9.23;2.53;;;;;;;18.56;100.00;100838.28;5011001;28;20099;-52
2022/09/16 05:07:53;;;;;;;7.95;2.10;;;;;;;18.68;100.00;100838.97;5011750;28;20052;-51
2022/09/16 05:10:18;;;;;;;16.88;3.10;;;;;;;19.07;100.00;100835.44;4995642;28;20047;-53
2022/09/16 05:12:49;;;;;;;19.13;3.13;;;;;;;18.71;100.00;100841.19;5007547;28;20033;-52
2022/09/16 05:15:14;;;;;;;23.53;3.83;;;;;;;18.78;100.00;100844.53;4991259;28;20034;-47
2022/09/16 05:17:40;;;;;;;15.73;3.53;;;;;;;18.65;100.00;100844.88;4991237;28;20280;-50
2022/09/16 05:20:06;;;;;;;16.98;4.25;;;;;;;18.74;100.00;100848.81;5007363;28;20034;-49
2022/09/16 05:22:32;;;;;;;15.50;4.20;;;;;;;18.28;100.00;100845.44;4996762;28;20023;-51
2022/09/16 05:24:57;;;;;;;18.70;4.07;;;;;;;18.34;100.00;100844.44;5001566;28;20050;-53
2022/09/16 05:27:23;;;;;;;21.13;5.03;;;;;;;18.30;100.00;100843.31;5002572;28;20057;-47
2022/09/16 05:29:48;;;;;;;19.40;4.10;;;;;;;18.51;100.00;100860.66;5003490;28;20054;-52
2022/09/16 05:32:14;;;;;;;22.70;4.73;;;;;;;18.81;100.00;100856.78;5002931;28;20033;-52
2022/09/16 05:34:39;;;;;;;23.00;4.90;;;;;;;18.71;100.00;100860.16;4990829;28;20323;-48
2022/09/16 05:37:05;;;;;;;17.87;4.37;;;;;;;18.26;100.00;100859.22;4973421;28;20322;-49
2022/09/16 05:39:30;;;;;;;15.83;3.90;;;;;;;18.75;100.00;100863.16;4991947;28;20274;-49
2022/09/16 05:41:58;;;;;;;17.47;3.50;;;;;;;18.93;100.00;100862.06;5007499;28;20294;-52
2022/09/16 05:44:25;;;;;;;22.03;4.47;;;;;;;18.52;100.00;100872.34;5008546;28;20052;-49
2022/09/16 05:46:51;;;;;;;25.60;4.77;;;;;;;18.79;100.00;100872.44;5000231;28;20284;-48
2022/09/16 05:49:19;;;;;;;16.57;3.87;;;;;;;18.86;100.00;100866.84;5018092;28;20301;-49
2022/09/16 05:51:45;;;;;;;16.67;3.80;;;;;;;19.01;100.00;100864.38;5001421;28;20057;-51
2022/09/16 05:54:12;;;;;;;16.43;3.60;;;;;;;18.26;100.00;100866.53;5002521;28;20265;-48
2022/09/16 05:56:38;;;;;;;11.37;2.80;;;;;;;18.44;100.00;100868.16;5006826;28;20276;-53
2022/09/16 05:59:04;;;;;;;10.83;2.37;;;;;;;18.71;100.00;100868.28;4990346;28;20276;-53
2022/09/16 06:01:34;;;;;;;16.25;2.97;;;;;;;18.55;100.00;100877.25;5004410;28;20269;-52
2022/09/16 06:04:02;;;;;;;11.03;3.87;;;;;;;18.55;100.00;100888.88;5009457;28;20045;-48
2022/09/16 06:06:40;;;;;;;14.77;4.17;;;;;;;18.84;100.00;100888.78;5000830;28;20273;-53
2022/09/16 06:09:16;;;;;;;13.23;2.40;;;;;;;18.88;100.00;100891.78;5003497;28;20290;-48
2022/09/16 06:11:45;;;;;;;10.93;2.07;;;;;;;18.24;100.00;100893.84;5002901;28;20310;-49
2022/09/16 06:14:12;;;;;;;8.17;1.50;;;;;;;18.30;100.00;100894.75;5003115;28;20360;-49
2022/09/16 06:16:38;;;;;;;7.57;2.63;;;;;;;17.87;100.00;100894.25;5004796;28;20277;-47
2022/09/16 06:19:06;;;;;;;8.85;1.83;;;;;;;18.40;100.00;100892.19;5003988;28;20266;-48
2022/09/16 06:21:32;;;;;;;5.63;1.60;;;;;;;18.57;100.00;100899.50;4998058;28;20035;-49
2022/09/16 06:23:57;;;;;;;7.60;1.67;;;;;;;18.22;100.00;100900.53;4989934;28;20275;-51
2022/09/16 06:26:25;;;;;;;4.63;1.53;;;;;;;18.53;100.00;100895.63;4999609;28;20043;-52
2022/09/16 06:28:51;;;;;;;6.53;1.50;;;;;;;18.06;100.00;100897.59;5007360;28;20270;-51
2022/09/16 06:31:20;;;;;;;3.97;1.40;;;;;;;18.02;100.00;100901.88;4988308;28;20424;-48
2022/09/16 06:33:46;;;;;;;9.17;2.00;;;;;;;18.11;100.00;100908.50;4998684;28;20038;-49
2022/09/16 06:36:17;;;;;;;4.65;2.08;;;;;;;17.78;100.00;100897.34;5000117;28;20295;-51
2022/09/16 06:38:43;;;;;;;12.10;2.57;;;;;;;18.57;100.00;100902.19;4989765;28;20043;-52
2022/09/16 06:41:11;;;;;;;11.77;4.40;;;;;;;18.52;100.00;100899.41;4998559;28;20268;-50
2022/09/16 06:43:37;;;;;;;12.83;2.47;;;;;;;18.47;100.00;100898.28;4984845;28;20277;-48
2022/09/16 06:46:12;;;;;;;6.70;2.03;;;;;;;18.48;100.00;100899.09;4990058;28;20268;-50
2022/09/16 06:48:39;;;;;;;5.93;2.07;;;;;;;18.29;100.00;100901.22;4999915;28;20057;-50
2022/09/16 06:51:09;;;;;;;5.47;1.80;;;;;;;18.72;100.00;100899.72;4989693;28;20289;-52
2022/09/16 06:53:35;;;;;;;12.77;2.57;;;;;;;18.71;100.00;100903.50;4988408;28;20261;-48
2022/09/16 06:56:03;;;;;;;8.73;1.93;;;;;;;18.54;100.00;100900.78;4991680;28;20273;-52
2022/09/16 06:58:34;;;;;;;6.30;1.77;;;;;;;18.43;100.00;100897.09;4987367;28;20274;-49
2022/09/16 07:01:18;;;;;;;7.57;1.53;;;;;;;18.33;100.00;100894.25;4985581;28;20261;-51
2022/09/16 07:03:45;;;;;;;11.43;2.20;;;;;;;18.84;100.00;100901.50;5007747;28;20281;-49
2022/09/16 07:06:13;;;;;;;8.97;2.40;;;;;;;18.94;100.00;100906.25;5022719;28;20348;-51
2022/09/16 07:08:39;;;;;;;8.50;2.80;;;;;;;18.68;100.00;100903.16;5009957;28;20270;-50
2022/09/16 07:11:19;;;;;;;12.95;2.92;;;;;;;18.96;100.00;100904.94;4998109;28;20374;-47
2022/09/16 07:13:46;;;;;;;16.93;3.20;;;;;;;19.15;100.00;100904.66;4998249;28;20030;-49
2022/09/16 07:16:14;;;;;;;16.30;4.13;;;;;;;19.48;100.00;100911.81;5009314;28;20268;-52
2022/09/16 07:18:40;;;;;;;9.37;2.50;;;;;;;18.99;100.00;100904.44;5018566;28;20289;-46
2022/09/16 07:21:10;;;;;;;7.27;1.80;;;;;;;19.09;100.00;100908.38;4996610;28;20269;-49
2022/09/16 07:23:36;;;;;;;10.17;1.80;;;;;;;19.70;100.00;100902.84;4987510;28;20269;-51
2022/09/16 07:26:06;;;;;;;8.50;1.57;;;;;;;19.41;100.00;100903.06;5023263;28;20297;-48
2022/09/16 07:28:32;;;;;;;9.37;1.50;;;;;;;19.69;100.00;100908.53;4986909;28;20269;-49
2022/09/16 07:31:04;;;;;;;7.33;1.60;;;;;;;20.00;100.00;100901.53;5000202;28;20319;-49
2022/09/16 07:33:32;;;;;;;7.07;1.13;;;;;;;19.42;100.00;100906.63;5013751;28;20283;-49
2022/09/16 07:35:59;;;;;;;4.60;1.03;;;;;;;19.50;100.00;100903.44;4987655;28;20344;-51
2022/09/16 07:38:26;;;;;;;6.53;1.13;;;;;;;19.59;100.00;100901.91;4993295;28;20261;-51
2022/09/16 07:40:52;;;;;;;8.90;1.10;;;;;;;19.32;100.00;100905.41;5001119;28;20321;-52
2022/09/16 07:43:18;;;;;;;10.85;1.45;;;;;;;19.93;100.00;100903.63;4992019;28;20273;-48
2022/09/16 07:45:43;;;;;;;4.85;1.23;;;;;;;19.51;100.00;100905.06;4988998;28;20043;-50
2022/09/16 07:48:09;;;;;;;8.40;1.30;;;;;;;20.11;100.00;100912.47;4990153;28;20054;-48
2022/09/16 07:50:34;;;;;;;7.83;1.73;;;;;;;19.87;100.00;100907.34;4990260;28;20043;-50
2022/09/16 07:53:00;;;;;;;11.07;1.55;;;;;;;20.20;100.00;100911.75;4992316;28;20029;-50
2022/09/16 07:55:26;;;;;;;6.30;1.23;;;;;;;20.13;100.00;100913.03;4992731;28;20050;-51
2022/09/16 07:57:51;;;;;;;10.30;1.98;;;;;;;20.25;100.00;100912.88;4994812;28;20743;-49
2022/09/16 08:00:17;;;;;;;9.00;2.08;;;;;;;20.82;100.00;100918.75;4993762;28;20064;-49
2022/09/16 08:02:42;;;;;;;8.37;1.70;;;;;;;20.82;100.00;100927.72;5021640;28;20039;-51
2022/09/16 08:05:08;;;;;;;8.87;1.73;;;;;;;20.87;100.00;100926.94;5004210;28;20035;-48
2022/09/16 08:07:34;;;;;;;;;;;;;;;21.11;100.00;100923.78;5003225;28;20041;-50
2022/09/16 08:10:00;;;;;;;7.17;1.10;;;;;;;20.95;100.00;100939.22;5016281;28;19914;-49
2022/09/16 08:12:25;;;;;;;8.47;0.93;;;;;;;20.60;100.00;100935.97;5009466;28;20306;-48
2022/09/16 08:14:51;;;;;;;6.75;1.73;;;;;;;21.04;100.00;100933.03;5015658;28;20306;-52
2022/09/16 08:17:16;;;;;;;9.83;1.93;;;;;;;20.71;100.00;100937.66;5010608;28;20046;-50
2022/09/16 08:19:42;;;;;;;11.77;1.33;;;;;;;20.33;100.00;100936.84;4990755;28;20277;-53
2022/09/16 08:22:07;;;;;;;8.38;1.17;;;;;;;20.73;100.00;100938.22;4999088;28;20102;-52
2022/09/16 08:24:33;;;;;;;3.90;1.02;;;;;;;20.80;100.00;100939.94;5026770;28;20028;-50
2022/09/16 08:26:59;;;;;;;7.03;1.05;;;;;;;20.74;100.00;100936.34;5006247;28;20035;-51
2022/09/16 08:29:25;;;;;;;7.55;1.25;;;;;;;20.86;100.00;100930.75;5009427;28;20038;-49
2022/09/16 08:31:50;;;;;;;5.10;1.27;;;;;;;21.11;100.00;100940.13;4992355;28;20039;-48
2022/09/16 08:34:17;;;;;;;6.93;1.05;;;;;;;21.59;100.00;100940.06;5012345;28;20098;-48
2022/09/16 08:36:42;;;;;;;9.80;1.98;;;;;;;22.19;100.00;100937.72;4992301;28;20046;-52
2022/09/16 08:39:09;;;;;;;5.90;1.33;;;;;;;21.63;100.00;100947.38;5002285;28;20035;-49
2022/09/16 08:42:13;;;;;;;6.03;1.10;;;;;;;22.11;100.00;100951.88;5001767;28;20026;-49
2022/09/16 08:45:11;;;;;;;5.80;0.90;;;;;;;23.13;100.00;100956.72;4999542;28;20061;-51
2022/09/16 08:48:09;;;;;;;4.07;0.90;;;;;;;22.56;100.00;100946.75;4952804;28;20088;-51
2022/09/16 08:50:41;;;;;;;3.10;0.90;;;;;;;23.19;100.00;100947.44;5006625;28;20047;-51
2022/09/16 08:53:16;;;;;;;2.97;0.83;;;;;;;23.16;100.00;100956.16;4989694;28;20043;-48
2022/09/16 08:55:46;;;;;;;3.17;0.73;;;;;;;22.79;100.00;100958.16;4999220;28;20088;-48
2022/09/16 08:58:19;;;;;;;7.23;0.80;;;;;;;22.46;100.00;100963.91;5000130;28;20034;-50
2022/09/16 09:00:53;;;;;;;4.03;1.33;;;;;;;22.30;100.00;100951.34;4989640;28;20031;-49
2022/09/16 09:03:35;;;;;;;4.27;0.60;;;;;;;21.98;100.00;100949.69;4998692;28;20031;-48
2022/09/16 09:06:08;;;;;;;5.40;1.23;;;;;;;22.30;100.00;100948.63;5003328;28;20046;-48
2022/09/16 09:09:00;;;;;;;3.40;0.97;;;;;;;22.13;100.00;100959.78;5003191;28;20047;-51
2022/09/16 09:11:38;;;;;;;1.50;0.60;;;;;;;22.16;100.00;100961.97;5000826;28;20038;-53
2022/09/16 09:14:17;;;;;;;5.57;0.90;;;;;;;22.77;100.00;100961.16;4988977;28;20035;-51
2022/09/16 09:16:57;;;;;;;4.80;1.40;;;;;;;22.29;100.00;100966.06;5003096;28;20101;-51
2022/09/16 09:19:35;;;;;;;6.30;0.80;;;;;;;21.73;100.00;100978.50;5007360;28;20042;-49
2022/09/16 09:22:21;;;;;;;2.20;0.60;;;;;;;22.09;100.00;100975.84;5011063;28;20032;-51
2022/09/16 09:25:14;;;;;;;3.37;0.70;;;;;;;20.94;100.00;100981.06;4998664;28;20035;-52
2022/09/16 09:27:43;;;;;;;1.60;0.37;;;;;;;20.75;100.00;100979.53;5008618;28;20036;-54
2022/09/16 09:30:24;;;;;;;0.90;0.50;;;;;;;20.77;100.00;100990.16;4989279;28;20042;-50
2022/09/16 09:33:09;;;;;;;2.97;0.80;;;;;;;20.54;100.00;100985.91;4997404;28;20035;-52
2022/09/16 09:36:22;;;;;;;5.20;0.70;;;;;;;21.35;100.00;100990.28;5005962;28;20276;-50
2022/09/16 09:39:06;;;;;;;3.13;0.47;;;;;;;20.83;100.00;100999.22;4988809;28;20292;-53
2022/09/16 09:41:38;;;;;;;3.47;0.50;;;;;;;20.50;100.00;100991.03;5001555;28;20266;-50
2022/09/16 09:44:26;;;;;;;4.00;1.70;;;;;;;22.65;100.00;100998.81;5018550;28;20292;-54
2022/09/16 09:46:56;;;;;;;4.07;0.90;;;;;;;25.79;92.04;101006.31;5001195;28;20735;-54
2022/09/16 09:49:40;;;;;;;5.03;0.70;;;;;;;24.56;100.00;100997.19;5005011;28;20056;-53
2022/09/16 09:52:21;;;;;;;1.20;0.67;;;;;;;24.40;98.05;101001.97;4999176;28;20039;-52
2022/09/16 09:54:49;;;;;;;4.13;0.57;;;;;;;24.73;97.15;100987.75;4986228;28;20044;-53
2022/09/16 09:57:32;;;;;;;2.67;0.53;;;;;;;24.87;98.00;100977.81;4995379;28;20049;-52
2022/09/16 10:00:13;;;;;;;2.57;0.90;;;;;;;26.02;91.21;100985.44;5015112;28;20034;-56
2022/09/16 10:02:40;;;;;;;3.80;0.70;;;;;;;26.16;89.03;100989.09;4998379;28;20034;-53
2022/09/16 10:05:27;;;;;;;9.27;4.63;;;;;;;28.08;74.90;100988.19;5014843;28;20057;-55
2022/09/16 10:08:12;;;;;;;30.00;13.43;;;;;;;29.13;67.74;100995.50;5009390;28;20036;-53
2022/09/16 10:10:53;;;;;;;3.37;0.77;;;;;;;29.68;66.62;100996.94;5002238;28;20046;-54
2022/09/16 10:13:21;;;;;;;3.97;1.53;;;;;;;30.36;64.25;100998.41;4998573;28;20045;-58
2022/09/16 10:15:52;;;;;;;4.60;0.93;;;;;;;30.54;61.54;100998.38;5001265;28;20049;-53
2022/09/16 10:18:31;;;;;;;24.42;10.48;;;;;;;30.55;55.42;101000.81;4992767;28;20038;-57
2022/09/16 10:21:06;;;;;;;4.40;1.90;;;;;;;30.55;54.17;101002.75;5004521;28;20031;-55
2022/09/16 10:23:34;;;;;;;9.77;3.28;;;;;;;31.20;51.14;100994.47;4994869;28;20021;-57
2022/09/16 10:26:25;;;;;;;9.77;1.25;;;;;;;30.01;52.22;101003.94;4998926;28;20038;-56
2022/09/16 10:28:59;;;;;;;17.20;7.32;;;;;;;31.05;52.42;100988.31;5005849;28;20034;-54
2022/09/16 10:31:34;;;;;;;5.90;2.05;;;;;;;30.51;49.70;100999.03;4999691;28;20046;-55
2022/09/16 10:34:01;;;;;;;9.45;3.42;;;;;;;31.82;48.77;100989.34;4995302;28;20029;-53
2022/09/16 10:36:32;;;;;;;2.55;1.25;;;;;;;32.46;46.08;100984.56;4989912;28;20107;-55
2022/09/16 10:39:03;;;;;;;5.38;1.52;;;;;;;32.65;44.73;100988.75;4998223;28;20067;-52
2022/09/16 10:41:33;;;;;;;5.00;1.88;;;;;;;33.20;42.57;100999.66;4991891;28;20050;-54
2022/09/16 10:44:11;;;;;;;4.30;0.90;;;;;;;31.82;41.51;100989.34;4991870;28;20030;-53
2022/09/16 10:46:37;;;;;;;4.45;1.95;;;;;;;28.73;45.83;100977.78;4998827;28;20050;-53
2022/09/16 10:49:11;;;;;;;3.83;2.15;;;;;;;29.19;47.89;100991.44;5007011;28;20059;-51
2022/09/16 10:51:36;;;;;;;9.85;2.47;;;;;;;28.73;48.54;100991.56;5008331;28;20037;-54
2022/09/16 10:54:04;;;;;;;9.60;4.60;;;;;;;30.95;49.11;100999.75;5016161;28;20098;-55
2022/09/16 10:56:50;;;;;;;7.15;2.17;;;;;;;29.56;50.96;101005.03;5007268;28;20049;-53
2022/09/16 10:59:16;;;;;;;8.80;2.28;;;;;;;28.22;58.89;101004.66;5010687;28;20033;-54
2022/09/16 11:01:52;;;;;;;;;;;;;;;26.96;70.31;101003.97;4997126;28;20038;-55
2022/09/16 11:04:32;;;;;;;3.67;1.73;;;;;;;26.85;73.59;101004.13;4991653;28;19937;-54
2022/09/16 11:07:31;;;;;;;38.53;20.43;;;;;;;26.32;71.62;101008.06;4993241;28;20073;-54
2022/09/16 11:10:38;;;;;;;63.67;30.97;;;;;;;25.48;77.16;101018.47;4996179;28;20027;-55
2022/09/16 11:13:22;;;;;;;5.60;0.83;;;;;;;25.12;76.94;101014.19;5008721;28;20114;-54
2022/09/16 11:16:23;;;;;;;5.73;1.10;;;;;;;24.91;82.50;101028.06;4989221;28;20073;-55
2022/09/16 11:18:56;;;;;;;4.23;1.13;;;;;;;23.73;85.28;101024.19;5000173;28;20035;-53
2022/09/16 11:22:03;;;;;;;3.87;1.80;;;;;;;22.41;94.44;101015.66;4995100;28;20038;-50
2022/09/16 11:24:38;;;;;;;1.80;0.60;;;;;;;21.90;100.00;101009.00;5000602;28;20077;-53
2022/09/16 11:27:26;;;;;;;2.17;0.80;;;;;;;22.08;100.00;101001.44;4990590;28;20030;-52
2022/09/16 11:30:18;;;;;;;3.17;0.70;;;;;;;22.06;100.00;100999.00;4990612;28;20102;-54
2022/09/16 11:33:02;;;;;;;3.97;1.00;;;;;;;22.65;100.00;101003.41;4995421;28;20077;-53
2022/09/16 11:35:42;;;;;;;2.87;0.60;;;;;;;21.25;100.00;101009.28;5005804;28;20268;-54
2022/09/16 11:38:26;;;;;;;4.50;0.80;;;;;;;21.47;100.00;101003.66;4999127;28;20277;-52
2022/09/16 11:41:00;;;;;;;6.77;1.23;;;;;;;21.17;100.00;101007.88;4990326;28;20273;-51